Time;durP1;ratioP1;P1;durP2;ratioP2;P2;SDS_P1;SDS_P2;PMS_P1;PMS_P2;Temp;Humidity;BMP_temperature;BMP_pressure;BME280_temperature;BME280_humidity;BME280_pressure;Samples;Min_cycle;Max_cycle;Signal;HPM_P1;HPM_P2
2024/03/15 00:00:00;;;;;;;2.15;1.40;;;17.00;61.80;;;;;;5073021;28;20206;-63
2024/03/15 00:02:26;;;;;;;1.45;1.35;;;17.00;61.80;;;;;;5072521;28;20223;-63
2024/03/15 00:04:52;;;;;;;1.60;1.50;;;17.00;61.80;;;;;;5073223;28;20242;-62
2024/03/15 00:07:21;;;;;;;1.40;1.30;;;17.00;61.70;;;;;;5072204;28;20558;-62
2024/03/15 00:09:49;;;;;;;1.52;1.13;;;17.00;61.70;;;;;;5073085;28;20269;-63
2024/03/15 00:12:15;;;;;;;1.42;1.33;;;17.00;61.80;;;;;;5072642;28;20170;-62
2024/03/15 00:14:43;;;;;;;1.98;1.40;;;17.00;61.80;;;;;;5072462;28;20261;-62
2024/03/15 00:17:12;;;;;;;1.42;1.33;;;17.00;62.20;;;;;;5072637;28;20175;-62
2024/03/15 00:19:38;;;;;;;2.35;1.50;;;17.00;61.90;;;;;;5072934;28;20206;-62
2024/03/15 00:22:03;;;;;;;1.40;1.30;;;17.00;62.20;;;;;;5072033;28;20228;-63
2024/03/15 00:24:29;;;;;;;4.40;1.70;;;17.00;62.00;;;;;;5072465;28;20265;-62
2024/03/15 00:26:55;;;;;;;1.50;1.38;;;16.90;62.10;;;;;;5072700;28;20166;-62
2024/03/15 00:29:20;;;;;;;1.30;1.20;;;16.90;62.50;;;;;;5070775;28;20258;-62
2024/03/15 00:31:46;;;;;;;1.13;1.13;;;16.90;62.40;;;;;;5072941;28;20691;-62
2024/03/15 00:34:12;;;;;;;1.65;1.40;;;16.90;62.00;;;;;;5072359;28;20387;-63
2024/03/15 00:36:37;;;;;;;1.73;1.52;;;16.90;62.50;;;;;;5071886;28;20170;-63
2024/03/15 00:39:03;;;;;;;1.50;1.40;;;16.90;61.90;;;;;;5072309;28;20904;-63
2024/03/15 00:41:29;;;;;;;1.73;1.30;;;16.90;62.30;;;;;;5072191;28;20659;-63
2024/03/15 00:43:54;;;;;;;2.00;1.50;;;16.90;62.30;;;;;;5071888;28;20216;-63
2024/03/15 00:46:20;;;;;;;1.50;1.40;;;16.90;62.10;;;;;;5072312;28;20249;-62
2024/03/15 00:48:46;;;;;;;2.13;1.50;;;16.90;62.10;;;;;;5072458;28;20264;-61
2024/03/15 00:51:13;;;;;;;1.30;1.20;;;16.90;62.20;;;;;;5071283;28;20174;-62
2024/03/15 00:53:38;;;;;;;1.65;1.55;;;16.90;62.40;;;;;;5072317;28;20261;-62
2024/03/15 00:56:07;;;;;;;1.30;1.30;;;16.90;62.20;;;;;;5072152;28;20308;-63
2024/03/15 00:58:33;;;;;;;1.52;1.42;;;16.90;62.00;;;;;;5071193;28;20612;-63
2024/03/15 01:01:00;;;;;;;1.25;1.15;;;16.90;61.90;;;;;;5072029;28;20213;-63
2024/03/15 01:03:26;;;;;;;2.35;1.15;;;16.90;62.40;;;;;;5071551;28;20187;-63
2024/03/15 01:05:52;;;;;;;1.73;1.60;;;16.90;61.90;;;;;;5071787;28;20488;-63
2024/03/15 01:08:21;;;;;;;1.38;1.27;;;16.90;61.90;;;;;;5071700;28;20174;-63
2024/03/15 01:10:46;;;;;;;1.63;1.52;;;16.90;62.10;;;;;;5071235;28;20214;-62
2024/03/15 01:13:12;;;;;;;2.22;1.77;;;16.90;62.00;;;;;;5071913;28;20543;-62
2024/03/15 01:15:38;;;;;;;1.40;1.30;;;16.90;62.00;;;;;;5072122;28;20174;-62
2024/03/15 01:18:04;;;;;;;1.83;1.63;;;16.80;62.10;;;;;;5071241;28;20166;-63
2024/03/15 01:20:30;;;;;;;1.10;1.10;;;16.80;62.00;;;;;;5071728;28;20621;-63
2024/03/15 01:22:56;;;;;;;1.30;1.20;;;16.80;62.00;;;;;;5071676;28;20280;-63
2024/03/15 01:25:22;;;;;;;1.70;1.58;;;16.80;62.20;;;;;;5070924;28;20171;-62
2024/03/15 01:27:47;;;;;;;3.55;1.73;;;16.80;62.00;;;;;;5072118;28;20291;-62
2024/03/15 01:30:13;;;;;;;3.80;1.60;;;16.80;62.00;;;;;;5071628;28;20536;-62
2024/03/15 01:32:39;;;;;;;1.40;1.30;;;16.80;61.80;;;;;;5071200;28;20178;-62
2024/03/15 01:35:04;;;;;;;1.58;1.40;;;16.80;61.80;;;;;;5071663;28;20251;-63
2024/03/15 01:37:30;;;;;;;1.60;1.50;;;16.80;62.10;;;;;;5071481;28;20319;-63
2024/03/15 01:39:55;;;;;;;1.40;1.30;;;16.80;62.30;;;;;;5070540;28;20230;-63
2024/03/15 01:42:21;;;;;;;1.58;1.48;;;16.80;62.30;;;;;;5071560;28;20182;-63
2024/03/15 01:44:54;;;;;;;1.73;1.63;;;16.80;62.20;;;;;;5071919;28;20189;-62
2024/03/15 01:47:21;;;;;;;1.92;1.40;;;16.80;61.90;;;;;;5070652;28;20267;-62
2024/03/15 01:49:47;;;;;;;1.63;1.52;;;16.80;62.30;;;;;;5071712;28;20178;-62
2024/03/15 01:52:13;;;;;;;1.50;1.40;;;16.80;62.20;;;;;;5070022;28;20315;-63
2024/03/15 01:54:39;;;;;;;1.65;1.40;;;16.80;62.10;;;;;;5070728;28;20261;-62
2024/03/15 01:57:08;;;;;;;1.80;1.45;;;16.80;62.10;;;;;;5071717;28;20186;-62
2024/03/15 01:59:34;;;;;;;1.40;1.30;;;16.80;62.00;;;;;;5071454;28;20210;-63
2024/03/15 02:02:01;;;;;;;1.45;1.35;;;16.80;62.30;;;;;;5070741;28;20181;-63
2024/03/15 02:04:27;;;;;;;1.75;1.40;;;16.80;62.40;;;;;;5070051;28;20183;-63
2024/03/15 02:06:52;;;;;;;1.80;1.45;;;16.80;62.10;;;;;;5070567;28;20244;-63
2024/03/15 02:09:19;;;;;;;1.50;1.40;;;16.80;62.30;;;;;;5071416;28;20197;-63
2024/03/15 02:11:46;;;;;;;2.15;1.65;;;16.80;62.50;;;;;;5071489;28;20175;-63
2024/03/15 02:14:12;;;;;;;1.10;1.10;;;16.80;63.00;;;;;;5070441;28;20186;-62
2024/03/15 02:16:37;;;;;;;1.73;1.55;;;16.80;62.40;;;;;;5071478;28;20166;-62
2024/03/15 02:19:03;;;;;;;1.75;1.65;;;16.80;62.50;;;;;;5071407;28;20217;-62
2024/03/15 02:21:28;;;;;;;1.38;1.27;;;16.80;62.40;;;;;;5074088;28;20182;-63
2024/03/15 02:23:54;;;;;;;1.48;1.38;;;16.80;62.30;;;;;;5074917;28;20178;-63
2024/03/15 02:26:21;;;;;;;1.25;1.20;;;16.80;62.30;;;;;;5074995;28;20180;-63
2024/03/15 02:28:46;;;;;;;1.90;1.40;;;16.80;62.50;;;;;;5074606;28;20178;-62
2024/03/15 02:31:13;;;;;;;1.55;1.45;;;16.80;62.20;;;;;;5074716;28;20171;-63
2024/03/15 02:33:38;;;;;;;1.80;1.20;;;16.80;62.30;;;;;;5075075;28;20247;-63
2024/03/15 02:36:09;;;;;;;1.42;1.33;;;16.80;62.50;;;;;;5074025;28;20629;-63
2024/03/15 02:38:36;;;;;;;1.70;1.35;;;16.80;62.20;;;;;;5074927;28;20268;-64
2024/03/15 02:41:04;;;;;;;2.47;1.27;;;16.80;62.40;;;;;;5074557;28;20222;-63
2024/03/15 02:43:32;;;;;;;1.60;1.50;;;16.80;62.30;;;;;;5073731;28;20549;-63
2024/03/15 02:45:57;;;;;;;2.13;1.52;;;16.70;62.60;;;;;;5074636;28;20646;-63
2024/03/15 02:48:23;;;;;;;1.70;1.50;;;16.80;62.20;;;;;;5074386;28;20323;-63
2024/03/15 02:50:48;;;;;;;1.38;1.27;;;16.70;62.30;;;;;;5073828;28;20289;-62
2024/03/15 02:53:14;;;;;;;1.77;1.67;;;16.70;62.40;;;;;;5074393;28;20257;-63
2024/03/15 02:55:39;;;;;;;1.52;1.42;;;16.70;62.20;;;;;;5074695;28;20379;-63
2024/03/15 02:58:07;;;;;;;1.63;1.50;;;16.70;62.30;;;;;;5073737;28;20193;-63
2024/03/15 03:00:34;;;;;;;1.55;1.40;;;16.70;62.50;;;;;;5074427;28;20187;-63
2024/03/15 03:03:00;;;;;;;1.60;1.50;;;16.70;62.60;;;;;;5074187;28;20179;-63
2024/03/15 03:05:26;;;;;;;1.30;1.20;;;16.70;62.30;;;;;;5073582;28;20228;-63
2024/03/15 03:07:51;;;;;;;2.08;1.88;;;16.70;62.40;;;;;;5074391;28;20677;-63
2024/03/15 03:10:17;;;;;;;1.92;1.50;;;16.80;62.40;;;;;;5073340;28;20183;-63
2024/03/15 03:12:42;;;;;;;1.30;1.20;;;16.70;62.60;;;;;;5074377;28;20310;-62
2024/03/15 03:15:10;;;;;;;2.13;1.40;;;16.80;62.50;;;;;;5073893;28;20718;-62
2024/03/15 03:17:35;;;;;;;1.75;1.42;;;16.70;62.50;;;;;;5073523;28;20175;-63
2024/03/15 03:20:01;;;;;;;1.50;1.40;;;16.70;62.30;;;;;;5073907;28;20209;-63
2024/03/15 03:22:26;;;;;;;1.48;1.38;;;16.70;62.50;;;;;;5073946;28;20178;-63
2024/03/15 03:24:52;;;;;;;1.45;1.35;;;16.70;62.50;;;;;;5073554;28;20402;-63
2024/03/15 03:27:17;;;;;;;1.67;1.40;;;16.70;62.10;;;;;;5073675;28;20579;-63
2024/03/15 03:29:43;;;;;;;1.23;1.20;;;16.70;62.60;;;;;;5073891;28;20216;-62
2024/03/15 03:32:08;;;;;;;1.60;1.42;;;16.70;62.50;;;;;;5071629;28;20175;-63
2024/03/15 03:34:34;;;;;;;2.35;1.40;;;16.70;62.30;;;;;;5073698;28;20171;-63
2024/03/15 03:36:59;;;;;;;1.50;1.40;;;16.70;62.20;;;;;;5073900;28;20171;-63
2024/03/15 03:39:25;;;;;;;1.48;1.38;;;16.70;62.20;;;;;;5072547;28;20226;-64
2024/03/15 03:41:51;;;;;;;2.22;1.40;;;16.70;62.30;;;;;;5073756;28;20195;-63
2024/03/15 03:44:17;;;;;;;1.42;1.33;;;16.70;62.30;;;;;;5073467;28;20629;-63
2024/03/15 03:46:43;;;;;;;2.22;1.58;;;16.70;62.60;;;;;;5072923;28;20198;-63
2024/03/15 03:49:08;;;;;;;2.17;1.85;;;16.70;62.60;;;;;;5073148;28;20602;-63
2024/03/15 03:51:34;;;;;;;1.50;1.40;;;16.70;62.30;;;;;;5073724;28;20171;-63
2024/03/15 03:54:00;;;;;;;1.73;1.60;;;16.70;62.60;;;;;;5072996;28;20182;-63
2024/03/15 03:56:29;;;;;;;1.75;1.60;;;16.70;62.20;;;;;;5073129;28;20175;-63
2024/03/15 03:58:54;;;;;;;1.60;1.50;;;16.70;62.50;;;;;;5073513;28;20221;-63
2024/03/15 04:01:20;;;;;;;1.70;1.60;;;16.70;62.30;;;;;;5072357;28;20273;-63
2024/03/15 04:03:48;;;;;;;1.60;1.50;;;16.70;62.30;;;;;;5073267;28;20197;-63
2024/03/15 04:06:14;;;;;;;2.05;1.65;;;16.70;62.50;;;;;;5072973;28;20175;-63
2024/03/15 04:08:40;;;;;;;1.60;1.42;;;16.70;62.40;;;;;;5072710;28;20621;-62
2024/03/15 04:11:05;;;;;;;1.55;1.45;;;16.70;62.30;;;;;;5073066;28;20254;-63
2024/03/15 04:13:31;;;;;;;1.70;1.60;;;16.70;62.60;;;;;;5072025;28;20231;-63
2024/03/15 04:15:56;;;;;;;2.05;1.52;;;16.70;62.70;;;;;;5072929;28;20175;-63
2024/03/15 04:18:22;;;;;;;1.50;1.40;;;16.70;62.50;;;;;;5072502;28;20242;-63
2024/03/15 04:20:48;;;;;;;1.70;1.60;;;16.70;62.70;;;;;;5072441;28;20257;-63
2024/03/15 04:23:15;;;;;;;2.05;1.50;;;16.60;62.10;;;;;;5072627;28;20178;-64
2024/03/15 04:25:43;;;;;;;2.20;1.60;;;16.70;62.60;;;;;;5072974;28;20175;-63
2024/03/15 04:28:08;;;;;;;1.75;1.60;;;16.70;62.50;;;;;;5071809;28;20257;-63
2024/03/15 04:30:34;;;;;;;1.80;1.42;;;16.70;62.40;;;;;;5072777;28;20170;-63
2024/03/15 04:33:00;;;;;;;2.00;1.63;;;16.60;62.60;;;;;;5072576;28;20175;-63
2024/03/15 04:35:27;;;;;;;1.40;1.30;;;16.60;62.20;;;;;;5071837;28;20194;-64
2024/03/15 04:37:53;;;;;;;1.90;1.52;;;16.60;62.30;;;;;;5072515;28;20175;-64
2024/03/15 04:40:19;;;;;;;1.65;1.52;;;16.60;62.70;;;;;;5072048;28;20333;-63
2024/03/15 04:42:47;;;;;;;2.42;1.80;;;16.60;62.20;;;;;;5071533;28;20211;-64
2024/03/15 04:45:14;;;;;;;1.52;1.40;;;16.60;62.20;;;;;;5071936;28;20614;-63
2024/03/15 04:47:43;;;;;;;1.48;1.40;;;16.60;62.70;;;;;;5072365;28;20171;-62
2024/03/15 04:50:09;;;;;;;1.70;1.60;;;16.60;62.40;;;;;;5071269;28;20202;-63
2024/03/15 04:52:36;;;;;;;1.52;1.40;;;16.60;62.30;;;;;;5072396;28;20237;-62
2024/03/15 04:55:02;;;;;;;1.90;1.80;;;16.60;62.30;;;;;;5072054;28;20698;-63
2024/03/15 04:57:29;;;;;;;1.65;1.30;;;16.60;62.20;;;;;;5071114;28;20178;-63
2024/03/15 04:59:54;;;;;;;1.92;1.65;;;16.60;62.40;;;;;;5071932;28;20210;-62
2024/03/15 05:02:20;;;;;;;1.80;1.70;;;16.60;62.60;;;;;;5072075;28;20175;-64
2024/03/15 05:04:46;;;;;;;2.15;1.60;;;16.60;62.40;;;;;;5071723;28;20182;-63
2024/03/15 05:07:12;;;;;;;1.92;1.73;;;16.60;62.60;;;;;;5071801;28;20183;-64
2024/03/15 05:09:38;;;;;;;2.25;1.77;;;16.60;62.50;;;;;;5071791;28;20190;-63
2024/03/15 05:12:04;;;;;;;2.15;1.42;;;16.60;62.40;;;;;;5071987;28;20268;-62
2024/03/15 05:14:30;;;;;;;2.55;1.90;;;16.60;62.40;;;;;;5071712;28;20229;-62
2024/03/15 05:16:56;;;;;;;1.40;1.30;;;16.60;62.60;;;;;;5071266;28;20213;-63
2024/03/15 05:19:22;;;;;;;1.63;1.52;;;16.60;62.40;;;;;;5071626;28;20253;-63
2024/03/15 05:21:49;;;;;;;1.83;1.42;;;16.60;62.70;;;;;;5071940;28;20193;-63
2024/03/15 05:24:15;;;;;;;2.55;1.92;;;16.60;62.50;;;;;;5070909;28;20206;-63
2024/03/15 05:26:41;;;;;;;1.50;1.40;;;16.60;62.40;;;;;;5071898;28;20625;-63
2024/03/15 05:29:07;;;;;;;2.25;1.65;;;16.60;62.50;;;;;;5071624;28;20641;-63
2024/03/15 05:31:32;;;;;;;1.75;1.48;;;16.60;62.50;;;;;;5069871;28;20227;-62
2024/03/15 05:33:58;;;;;;;1.88;1.60;;;16.60;62.70;;;;;;5071617;28;20224;-63
2024/03/15 05:36:25;;;;;;;1.75;1.65;;;16.60;62.40;;;;;;5071243;28;20320;-63
2024/03/15 05:38:51;;;;;;;1.85;1.67;;;16.60;62.60;;;;;;5070900;28;20206;-63
2024/03/15 05:41:16;;;;;;;1.80;1.67;;;16.60;62.40;;;;;;5071084;28;20214;-62
2024/03/15 05:43:42;;;;;;;1.55;1.45;;;16.60;62.50;;;;;;5071734;28;20175;-63
2024/03/15 05:46:11;;;;;;;1.83;1.70;;;16.60;62.60;;;;;;5070638;28;20167;-63
2024/03/15 05:48:37;;;;;;;2.65;1.63;;;16.60;62.50;;;;;;5071740;28;20179;-62
2024/03/15 05:51:03;;;;;;;1.98;1.85;;;16.60;62.50;;;;;;5071613;28;20196;-62
2024/03/15 05:53:29;;;;;;;2.20;2.00;;;16.60;62.50;;;;;;5070552;28;20632;-62
2024/03/15 05:55:55;;;;;;;2.17;1.45;;;16.60;62.70;;;;;;5074961;28;20166;-62
2024/03/15 05:58:20;;;;;;;2.28;1.92;;;16.60;62.80;;;;;;5075165;28;20516;-63
2024/03/15 06:00:46;;;;;;;2.08;1.88;;;16.60;62.50;;;;;;5075074;28;20178;-62
2024/03/15 06:03:12;;;;;;;3.13;1.58;;;16.60;62.50;;;;;;5075184;28;20209;-62
2024/03/15 06:05:37;;;;;;;2.65;1.60;;;16.60;62.70;;;;;;5075620;28;20174;-63
2024/03/15 06:08:03;;;;;;;1.80;1.70;;;16.60;62.50;;;;;;5074607;28;20185;-64
2024/03/15 06:10:29;;;;;;;2.15;1.95;;;16.60;62.50;;;;;;5075165;28;20182;-64
2024/03/15 06:12:55;;;;;;;2.13;1.77;;;16.60;62.90;;;;;;5074791;28;20181;-65
2024/03/15 06:15:21;;;;;;;2.35;2.13;;;16.60;62.60;;;;;;5074472;28;20273;-63
2024/03/15 06:17:47;;;;;;;2.13;1.55;;;16.60;62.70;;;;;;5075487;28;20178;-63
2024/03/15 06:20:13;;;;;;;2.55;1.70;;;16.50;62.90;;;;;;5074150;28;20225;-64
2024/03/15 06:22:38;;;;;;;2.10;1.67;;;16.60;62.70;;;;;;5075187;28;20512;-63
2024/03/15 06:25:05;;;;;;;1.83;1.65;;;16.50;62.70;;;;;;5074962;28;20211;-63
2024/03/15 06:27:31;;;;;;;1.63;1.52;;;16.50;62.70;;;;;;5073976;28;20174;-62
2024/03/15 06:29:57;;;;;;;2.40;1.70;;;16.60;63.10;;;;;;5074906;28;20770;-63
2024/03/15 06:32:35;;;;;;;2.38;1.40;;;16.60;62.80;;;;;;5074773;28;20250;-63
2024/03/15 06:35:08;;;;;;;2.15;1.95;;;16.50;63.00;;;;;;5074124;28;20539;-63
2024/03/15 06:37:33;;;;;;;1.67;1.58;;;16.50;62.70;;;;;;5074751;28;20187;-63
2024/03/15 06:42:34;;;;;;;4.35;1.90;;;16.50;62.70;;;;;;5073937;28;20309;-62
2024/03/15 06:45:03;;;;;;;2.08;1.60;;;16.50;62.60;;;;;;5074926;28;20181;-63
2024/03/15 06:47:32;;;;;;;1.75;1.23;;;16.50;63.10;;;;;;5074508;28;20265;-63
2024/03/15 06:50:20;;;;;;;2.08;1.77;;;16.50;63.10;;;;;;5073960;28;20179;-63
2024/03/15 06:52:45;;;;;;;2.03;1.80;;;16.60;63.20;;;;;;5074625;28;20641;-62
2024/03/15 06:55:11;;;;;;;2.75;1.83;;;16.60;63.80;;;;;;5073479;28;20197;-63
2024/03/15 06:57:38;;;;;;;1.83;1.65;;;16.60;63.30;;;;;;5074686;28;20174;-63
2024/03/15 07:00:09;;;;;;;1.70;1.60;;;16.60;63.30;;;;;;5074260;28;20222;-63
2024/03/15 07:02:44;;;;;;;2.08;1.70;;;16.70;63.40;;;;;;5073876;28;20223;-63
2024/03/15 07:05:13;;;;;;;1.70;1.60;;;16.70;63.50;;;;;;5073797;28;20187;-63
2024/03/15 07:07:40;;;;;;;1.90;1.73;;;16.70;63.40;;;;;;5074508;28;20186;-63
2024/03/15 07:10:10;;;;;;;3.85;1.60;;;16.70;63.50;;;;;;5073584;28;20303;-63
2024/03/15 07:12:38;;;;;;;1.65;1.55;;;16.70;63.70;;;;;;5074229;28;20182;-66
2024/03/15 07:15:06;;;;;;;1.65;1.55;;;16.70;63.50;;;;;;5074030;28;20584;-62
2024/03/15 07:17:34;;;;;;;1.77;1.52;;;16.70;63.40;;;;;;5072985;28;20179;-62
2024/03/15 07:20:00;;;;;;;1.73;1.63;;;16.70;63.40;;;;;;5074212;28;20292;-62
2024/03/15 07:22:27;;;;;;;2.53;1.60;;;16.70;63.30;;;;;;5073973;28;20204;-62
2024/03/15 07:24:54;;;;;;;2.70;1.80;;;16.70;63.20;;;;;;5073215;28;20648;-63
2024/03/15 07:27:20;;;;;;;1.73;1.60;;;16.70;62.90;;;;;;5073678;28;20625;-62
2024/03/15 07:29:46;;;;;;;2.03;1.92;;;16.70;63.30;;;;;;5074002;28;20257;-62
2024/03/15 07:32:11;;;;;;;1.73;1.63;;;16.70;63.40;;;;;;5072881;28;20316;-63
2024/03/15 07:34:37;;;;;;;1.73;1.63;;;16.80;63.20;;;;;;5074153;28;20634;-62
2024/03/15 07:37:04;;;;;;;2.53;1.77;;;16.80;63.10;;;;;;5073607;28;20712;-63
2024/03/15 07:39:30;;;;;;;1.50;1.40;;;16.80;62.90;;;;;;5072629;28;20279;-63
2024/03/15 07:42:01;;;;;;;2.03;1.60;;;16.80;63.00;;;;;;5073514;28;20175;-62
2024/03/15 07:44:28;;;;;;;2.17;1.70;;;16.80;62.90;;;;;;5072666;28;20178;-62
2024/03/15 07:46:56;;;;;;;2.50;1.70;;;16.80;63.20;;;;;;5073719;28;20634;-63
2024/03/15 07:49:24;;;;;;;1.83;1.73;;;16.80;62.90;;;;;;5073386;28;20189;-63
2024/03/15 07:51:50;;;;;;;1.98;1.40;;;16.90;62.70;;;;;;5072997;28;20166;-62
2024/03/15 07:54:23;;;;;;;3.25;1.85;;;17.00;62.40;;;;;;5073235;28;20201;-63
2024/03/15 07:56:49;;;;;;;3.13;1.70;;;16.90;62.70;;;;;;5073526;28;20204;-64
2024/03/15 07:59:14;;;;;;;1.60;1.50;;;16.90;62.70;;;;;;5072118;28;20203;-62
2024/03/15 08:01:42;;;;;;;1.55;1.45;;;16.90;62.70;;;;;;5073485;28;20181;-63
2024/03/15 08:04:12;;;;;;;1.48;1.38;;;16.90;62.90;;;;;;5073056;28;20174;-63
2024/03/15 08:06:38;;;;;;;3.88;1.73;;;16.90;63.10;;;;;;5072450;28;20628;-62
2024/03/15 08:09:04;;;;;;;3.47;1.80;;;16.90;63.10;;;;;;5072930;28;20188;-62
2024/03/15 08:11:33;;;;;;;2.00;1.55;;;16.90;63.00;;;;;;5072730;28;20171;-62
2024/03/15 08:13:59;;;;;;;3.83;1.73;;;17.00;63.10;;;;;;5072339;28;20209;-62
2024/03/15 08:16:33;;;;;;;1.60;1.50;;;17.00;63.00;;;;;;5072427;28;20632;-62
2024/03/15 08:19:00;;;;;;;1.50;1.40;;;17.00;63.00;;;;;;5072528;28;20206;-61
2024/03/15 08:21:26;;;;;;;2.83;1.92;;;17.00;63.10;;;;;;5071951;28;20178;-62
2024/03/15 08:23:52;;;;;;;3.33;1.77;;;17.00;63.20;;;;;;5072746;28;20533;-61
2024/03/15 08:26:20;;;;;;;1.63;1.42;;;17.00;63.30;;;;;;5072476;28;20652;-61
2024/03/15 08:28:49;;;;;;;2.05;1.80;;;17.00;63.40;;;;;;5072247;28;20170;-61
2024/03/15 08:31:18;;;;;;;1.85;1.40;;;17.00;63.40;;;;;;5071252;28;20266;-61
2024/03/15 08:33:47;;;;;;;2.30;1.60;;;16.90;63.40;;;;;;5071604;28;20199;-62
2024/03/15 08:36:13;;;;;;;1.98;1.77;;;16.90;63.40;;;;;;5072047;28;20178;-63
2024/03/15 08:38:39;;;;;;;4.13;1.70;;;17.00;63.40;;;;;;5072357;28;20665;-62
2024/03/15 08:41:06;;;;;;;2.25;1.42;;;16.90;63.50;;;;;;5071463;28;20309;-61
2024/03/15 08:43:31;;;;;;;1.40;1.30;;;16.90;64.40;;;;;;5072334;28;20182;-61
2024/03/15 08:45:57;;;;;;;1.63;1.52;;;17.00;63.50;;;;;;5072508;28;20183;-61
2024/03/15 08:48:23;;;;;;;1.90;1.80;;;16.90;63.40;;;;;;5071358;28;20250;-61
2024/03/15 08:50:48;;;;;;;2.47;1.50;;;16.90;63.40;;;;;;5072367;28;20175;-61
2024/03/15 08:53:14;;;;;;;1.67;1.38;;;16.90;63.40;;;;;;5071861;28;20170;-61
2024/03/15 08:55:41;;;;;;;1.73;1.63;;;16.90;63.40;;;;;;5071789;28;20181;-61
2024/03/15 08:58:08;;;;;;;2.15;1.60;;;16.90;63.40;;;;;;5072109;28;20525;-62
2024/03/15 09:00:33;;;;;;;2.40;1.77;;;16.80;63.50;;;;;;5072149;28;20226;-61
2024/03/15 09:02:58;;;;;;;4.13;1.90;;;16.80;63.50;;;;;;5071418;28;20178;-61
2024/03/15 09:05:24;;;;;;;2.80;2.03;;;16.80;63.60;;;;;;5071908;28;20181;-61
2024/03/15 09:07:50;;;;;;;2.28;1.75;;;16.80;63.60;;;;;;5072078;28;20174;-61
2024/03/15 09:10:15;;;;;;;3.38;1.83;;;16.80;63.70;;;;;;5071197;28;20177;-61
2024/03/15 09:12:44;;;;;;;1.75;1.65;;;16.80;63.70;;;;;;5072047;28;20170;-60
2024/03/15 09:15:13;;;;;;;2.85;1.50;;;16.80;63.80;;;;;;5071937;28;20201;-61
2024/03/15 09:17:42;;;;;;;3.63;1.90;;;16.80;63.80;;;;;;5071354;28;20210;-61
2024/03/15 09:20:27;;;;;;;2.33;1.95;;;16.80;63.80;;;;;;5071599;28;20552;-61
2024/03/15 09:22:52;;;;;;;2.67;1.50;;;16.80;63.80;;;;;;5071440;28;20171;-61
2024/03/15 09:25:18;;;;;;;3.03;1.83;;;16.80;63.80;;;;;;5071684;28;20678;-62
2024/03/15 09:27:48;;;;;;;3.22;1.75;;;16.80;64.00;;;;;;5071972;28;20178;-62
2024/03/15 09:30:18;;;;;;;1.80;1.65;;;16.80;64.20;;;;;;5069812;28;20182;-62
2024/03/15 09:32:44;;;;;;;3.70;1.85;;;16.80;63.90;;;;;;5071600;28;20525;-62
2024/03/15 09:35:12;;;;;;;2.78;1.65;;;16.80;64.20;;;;;;5071189;28;20231;-62
2024/03/15 09:37:46;;;;;;;3.03;1.85;;;16.80;63.90;;;;;;5071128;28;20181;-65
2024/03/15 09:40:14;;;;;;;2.13;1.50;;;16.80;63.90;;;;;;5071181;28;20233;-63
2024/03/15 09:42:41;;;;;;;2.88;1.98;;;16.80;63.90;;;;;;5071627;28;20228;-62
2024/03/15 09:45:07;;;;;;;2.13;1.50;;;16.90;64.10;;;;;;5069621;28;20183;-62
2024/03/15 09:47:32;;;;;;;1.48;1.38;;;16.90;64.10;;;;;;5070051;28;20177;-61
2024/03/15 09:49:58;;;;;;;2.13;1.73;;;16.90;64.00;;;;;;5071660;28;20170;-62
2024/03/15 09:52:23;;;;;;;2.22;1.70;;;16.90;64.10;;;;;;5069452;28;20170;-62
2024/03/15 09:54:49;;;;;;;2.30;1.85;;;16.90;64.00;;;;;;5070435;28;20177;-62
2024/03/15 09:57:16;;;;;;;2.20;1.83;;;16.90;63.90;;;;;;5070042;28;20241;-62
2024/03/15 09:59:42;;;;;;;4.85;1.63;;;17.00;63.70;;;;;;5069522;28;20213;-63
2024/03/15 10:02:22;;;;;;;1.65;1.55;;;17.00;63.70;;;;;;5069942;28;20174;-65
2024/03/15 10:04:52;;;;;;;1.83;1.70;;;17.00;64.00;;;;;;5070709;28;20228;-64
2024/03/15 10:07:21;;;;;;;3.22;1.65;;;17.00;63.90;;;;;;5069261;28;20174;-64
2024/03/15 10:09:48;;;;;;;7.72;1.75;;;17.10;63.80;;;;;;5071514;28;20650;-63
2024/03/15 10:12:13;;;;;;;1.50;1.40;;;17.20;63.80;;;;;;5070378;28;20183;-64
2024/03/15 10:14:39;;;;;;;1.95;1.35;;;17.30;63.60;;;;;;5071480;28;20204;-63
2024/03/15 10:17:04;;;;;;;2.33;1.50;;;17.40;63.40;;;;;;5071205;28;20535;-63
2024/03/15 10:19:31;;;;;;;3.70;1.55;;;17.50;63.40;;;;;;5070226;28;20688;-63
2024/03/15 10:22:00;;;;;;;7.88;2.00;;;17.50;63.10;;;;;;5071379;28;20174;-63
2024/03/15 10:24:25;;;;;;;2.22;1.50;;;17.60;63.10;;;;;;5071052;28;20189;-62
2024/03/15 10:26:52;;;;;;;6.30;2.20;;;17.60;62.90;;;;;;5070622;28;20249;-62
2024/03/15 10:29:17;;;;;;;2.60;1.50;;;17.70;63.00;;;;;;5070037;28;20253;-63
2024/03/15 10:31:43;;;;;;;1.90;1.67;;;17.70;62.90;;;;;;5071343;28;20253;-64
2024/03/15 10:34:11;;;;;;;2.97;1.77;;;17.80;63.10;;;;;;5070194;28;20672;-65
2024/03/15 10:36:38;;;;;;;2.42;1.60;;;17.70;63.20;;;;;;5070156;28;20181;-64
2024/03/15 10:39:03;;;;;;;2.17;1.60;;;17.70;63.30;;;;;;5071093;28;20664;-64
2024/03/15 10:41:30;;;;;;;1.60;1.50;;;17.70;63.30;;;;;;5072671;28;20260;-65
2024/03/15 10:43:57;;;;;;;2.38;1.60;;;17.70;63.60;;;;;;5073878;28;20222;-65
2024/03/15 10:46:22;;;;;;;2.50;1.80;;;17.60;63.60;;;;;;5073409;28;20220;-64
2024/03/15 10:48:48;;;;;;;3.50;1.80;;;17.60;63.60;;;;;;5074074;28;20166;-64
2024/03/15 10:51:13;;;;;;;3.28;1.60;;;17.70;63.70;;;;;;5073334;28;20257;-64
2024/03/15 10:53:39;;;;;;;3.00;1.40;;;17.70;63.70;;;;;;5073558;28;20170;-65
2024/03/15 10:56:05;;;;;;;1.65;1.27;;;17.70;63.50;;;;;;5069376;28;20211;-65
2024/03/15 10:58:31;;;;;;;3.95;1.60;;;17.60;63.50;;;;;;5045748;28;20178;-64
2024/03/15 11:00:56;;;;;;;2.92;1.65;;;17.70;63.60;;;;;;5065153;28;20170;-64
2024/03/15 11:03:28;;;;;;;4.15;1.50;;;17.70;63.60;;;;;;5061915;28;20179;-64
2024/03/15 11:05:53;;;;;;;3.67;1.60;;;17.70;63.60;;;;;;5043402;28;20175;-64
2024/03/15 11:08:21;;;;;;;2.30;1.42;;;17.80;63.30;;;;;;5053787;28;20552;-64
2024/03/15 11:10:54;;;;;;;1.70;1.42;;;17.80;63.20;;;;;;5054346;28;20167;-63
2024/03/15 11:13:20;;;;;;;4.85;1.60;;;17.80;63.40;;;;;;5053972;28;20659;-63
2024/03/15 11:15:45;;;;;;;1.50;1.33;;;17.80;63.50;;;;;;5053723;28;20190;-63
2024/03/15 11:18:13;;;;;;;3.45;1.67;;;17.70;63.60;;;;;;5053275;28;20209;-63
2024/03/15 11:20:45;;;;;;;4.45;1.70;;;17.70;63.60;;;;;;5036508;28;20211;-63
2024/03/15 11:23:12;;;;;;;2.00;1.20;;;17.70;63.60;;;;;;5053019;28;20187;-63
2024/03/15 11:25:38;;;;;;;2.50;1.13;;;17.70;63.70;;;;;;5054306;28;20237;-64
2024/03/15 11:28:04;;;;;;;3.22;1.40;;;17.60;63.80;;;;;;5053939;28;20186;-64
2024/03/15 11:30:30;;;;;;;3.00;1.45;;;17.60;63.80;;;;;;5051911;28;20176;-64
2024/03/15 11:32:56;;;;;;;3.38;1.40;;;17.60;63.90;;;;;;5053959;28;20263;-64
2024/03/15 11:35:22;;;;;;;4.25;1.45;;;17.60;63.80;;;;;;5053796;28;20167;-63
2024/03/15 11:37:55;;;;;;;2.75;1.50;;;17.50;63.90;;;;;;5053158;28;20183;-65
2024/03/15 11:40:23;;;;;;;1.55;1.23;;;17.50;64.10;;;;;;5052228;28;20234;-65
2024/03/15 11:42:49;;;;;;;5.38;1.80;;;17.50;64.10;;;;;;5056656;28;20270;-63
2024/03/15 11:45:14;;;;;;;2.83;1.55;;;17.50;64.10;;;;;;5061302;28;20254;-62
2024/03/15 11:47:40;;;;;;;1.95;1.50;;;17.50;64.10;;;;;;5063692;28;20570;-62
2024/03/15 11:50:13;;;;;;;3.13;1.58;;;17.50;64.00;;;;;;5062444;28;20175;-62
2024/03/15 11:52:38;;;;;;;5.10;1.60;;;17.40;64.00;;;;;;5059888;28;20229;-62
2024/03/15 11:55:04;;;;;;;2.78;1.40;;;17.40;64.00;;;;;;5053418;28;20186;-62
2024/03/15 11:57:32;;;;;;;3.38;1.65;;;17.50;64.10;;;;;;5052103;28;20190;-62
2024/03/15 11:59:58;;;;;;;3.95;1.60;;;17.40;64.10;;;;;;5052988;28;20210;-62
2024/03/15 12:02:23;;;;;;;2.30;1.50;;;17.40;64.20;;;;;;5053139;28;20224;-62
2024/03/15 12:04:49;;;;;;;1.83;1.40;;;17.30;64.20;;;;;;5051412;28;20171;-61
2024/03/15 12:07:14;;;;;;;3.40;1.48;;;17.30;64.20;;;;;;5053144;28;20175;-62
2024/03/15 12:09:43;;;;;;;3.97;1.95;;;17.30;64.30;;;;;;5053463;28;20216;-62
2024/03/15 12:12:11;;;;;;;1.80;1.50;;;17.30;64.40;;;;;;5052149;28;20171;-63
2024/03/15 12:14:39;;;;;;;3.42;1.65;;;17.20;64.30;;;;;;5035736;28;20182;-61
2024/03/15 12:17:09;;;;;;;2.13;1.50;;;17.30;64.40;;;;;;5053131;28;20176;-62
2024/03/15 12:19:37;;;;;;;2.90;1.67;;;17.20;64.20;;;;;;5051115;28;20207;-62
2024/03/15 12:22:03;;;;;;;4.40;2.00;;;17.30;64.30;;;;;;5053131;28;20193;-62
2024/03/15 12:24:28;;;;;;;1.55;1.20;;;17.30;64.20;;;;;;5052986;28;20614;-62
2024/03/15 12:26:56;;;;;;;2.55;1.40;;;17.30;64.20;;;;;;5052349;28;20727;-61
2024/03/15 12:29:22;;;;;;;2.20;1.48;;;17.30;64.20;;;;;;5052712;28;20189;-62
2024/03/15 12:31:48;;;;;;;2.40;1.60;;;17.30;64.10;;;;;;5052872;28;20171;-62
2024/03/15 12:34:13;;;;;;;2.35;1.45;;;17.40;63.80;;;;;;5051610;28;20179;-62
2024/03/15 12:36:39;;;;;;;2.35;1.50;;;17.50;63.60;;;;;;5053063;28;20190;-62
2024/03/15 12:39:06;;;;;;;2.97;1.80;;;17.50;63.70;;;;;;5052737;28;20206;-62
2024/03/15 12:41:31;;;;;;;3.67;1.42;;;17.50;64.50;;;;;;5051492;28;20245;-63
2024/03/15 12:43:57;;;;;;;3.60;1.83;;;17.50;63.70;;;;;;5052459;28;20646;-62
2024/03/15 12:46:23;;;;;;;3.25;1.40;;;17.50;63.50;;;;;;5052165;28;20175;-62